Terminal Aerodrome Forecast
Issued by NWS Jackson, MS

Home | Current Version | Previous Version | Text Only | Print | Product List | Glossary On
Versions: 1 2 3 4 5 6 7 8 9 10 11 12 13 14 15 16 17 18
000
FTUS44 KJAN 271721
TAFMEI
TAF
KMEI 271721Z 2718/2818 36008G18KT P6SM SKC
     FM272300 32010G15KT P6SM VCSH BKN050 BKN090
     FM280100 33008KT P6SM SKC
     FM281500 03003KT P6SM BKN250=

USA.gov is the U.S. government's official web portal to all federal, state and local government web resources and services.